North La Junta, Colorado
Current Conditions -  °F | °C
As of 12:53 PM on Monday 22 Dec 2014 (Local Time) from KLHX Reporting Station
Scattered Clouds Scattered Clouds  
Wind Chill: 43°   Ceiling: Unl
Heat Index: 46°   Visibility: 10mi
Dew Point: 25°   Wind: 6mph
Humidity: 44%   Direction: 320°NW
Pressure: 29.68"   Gusts: NA
Location:  37.8368°N, 103.544°W
Report Text: KLHX 221953Z AUTO 32005KT 10SM SCT095 08/M04 A2968 RMK AO2 SLP036 T00781039
Loading
Personal Weather Stations






























Interactive Weather Map New forecast layout! Learn more

10-Day Weather Forecast

Advertisements
Track Severe Weather on mobile